createdAt,value
2019-05-06T00:01:41.711Z,100980.53
2019-05-06T00:04:14.027Z,100978.61
2019-05-06T00:06:46.345Z,100976.01
2019-05-06T00:09:17.745Z,100972.28
2019-05-06T00:11:49.639Z,100978.72
2019-05-06T00:14:23.445Z,100968.44
2019-05-06T00:16:55.738Z,100970.38
2019-05-06T00:19:27.226Z,100972.53
2019-05-06T00:21:58.403Z,100969.06
2019-05-06T00:24:31.378Z,100969.99
2019-05-06T00:27:04.856Z,100968.05
2019-05-06T00:29:36.422Z,100969.09
2019-05-06T00:32:07.727Z,100969.84
2019-05-06T00:34:38.930Z,100967.02
2019-05-06T00:37:11.521Z,100967.30
2019-05-06T00:39:44.389Z,100967.94
2019-05-06T00:42:18.294Z,100965.50
2019-05-06T00:44:50.170Z,100965.11
2019-05-06T00:47:21.802Z,100967.30
2019-05-06T00:49:54.707Z,100965.25
2019-05-06T00:52:27.380Z,100970.52
2019-05-06T00:54:59.648Z,100971.83
2019-05-06T00:57:34.035Z,100972.70
2019-05-06T01:00:06.936Z,100971.55
2019-05-06T01:02:39.417Z,100974.27
2019-05-06T01:05:10.994Z,100974.88
2019-05-06T01:07:44.020Z,100969.88
2019-05-06T01:10:17.261Z,100976.81
2019-05-06T01:12:50.273Z,100975.41
2019-05-06T01:15:25.849Z,100980.67
2019-05-06T01:17:59.369Z,100978.09
2019-05-06T01:20:33.790Z,100983.89
2019-05-06T01:23:04.701Z,100980.28
2019-05-06T01:25:35.939Z,100984.90
2019-05-06T01:28:07.748Z,100982.22
2019-05-06T01:30:39.666Z,100978.21
2019-05-06T01:33:11.556Z,100975.67
2019-05-06T01:35:44.358Z,100973.73
2019-05-06T01:38:18.960Z,100979.88
2019-05-06T01:40:54.554Z,100980.92
2019-05-06T01:43:27.860Z,100975.91
2019-05-06T01:45:59.461Z,100977.59
2019-05-06T01:48:33.659Z,100978.50
2019-05-06T01:51:05.982Z,100977.48
2019-05-06T01:53:38.176Z,100982.64
2019-05-06T01:56:09.515Z,100986.99
2019-05-06T01:58:40.804Z,100984.44
2019-05-06T02:01:12.129Z,100981.86
2019-05-06T02:03:44.156Z,100984.80
2019-05-06T02:06:16.451Z,100989.05
2019-05-06T02:08:48.439Z,100982.37
2019-05-06T02:11:20.513Z,100977.22
2019-05-06T02:13:53.815Z,100977.51
2019-05-06T02:16:26.420Z,100976.08
2019-05-06T02:18:59.470Z,100975.06
2019-05-06T02:21:30.548Z,100975.83
2019-05-06T02:24:04.267Z,100976.97
2019-05-06T02:26:36.274Z,100979.82
2019-05-06T02:29:09.459Z,100977.99
2019-05-06T02:31:42.096Z,100979.69
2019-05-06T02:34:15.414Z,100981.85
2019-05-06T02:36:47.454Z,100980.95
2019-05-06T02:39:18.749Z,100976.34
2019-05-06T02:41:49.814Z,100971.70
2019-05-06T02:44:23.792Z,100967.86
2019-05-06T02:46:56.454Z,100976.09
2019-05-06T02:49:29.410Z,100978.00
2019-05-06T02:52:03.093Z,100981.73
2019-05-06T02:54:34.662Z,100972.59
2019-05-06T02:57:07.512Z,100975.83
2019-05-06T02:59:39.882Z,100976.96
2019-05-06T03:02:13.954Z,100978.23
2019-05-06T03:04:45.717Z,100982.48
2019-05-06T03:07:16.880Z,100979.13
2019-05-06T03:09:48.490Z,100974.73
2019-05-06T03:12:22.870Z,100978.22
2019-05-06T03:14:53.648Z,100986.95
2019-05-06T03:17:28.809Z,100985.55
2019-05-06T03:20:04.326Z,100991.06
2019-05-06T03:22:37.494Z,100991.84
2019-05-06T03:25:13.314Z,100988.39
2019-05-06T03:27:46.992Z,100983.25
2019-05-06T03:30:19.041Z,100985.31
2019-05-06T03:33:23.435Z,100988.27
2019-05-06T03:35:36.304Z,100988.66
2019-05-06T03:37:59.293Z,100993.55
2019-05-06T03:40:36.176Z,100987.66
2019-05-06T03:43:05.495Z,100985.83
2019-05-06T03:45:38.443Z,100992.02
2019-05-06T03:48:12.980Z,100989.30
2019-05-06T03:50:44.738Z,100988.80
2019-05-06T03:53:16.909Z,101002.30
2019-05-06T03:55:53.747Z,100992.28
2019-05-06T03:58:26.849Z,100993.30
2019-05-06T04:00:59.841Z,100986.75
2019-05-06T04:03:44.058Z,100984.31
2019-05-06T04:06:05.837Z,100983.94
2019-05-06T04:08:37.497Z,100982.63
2019-05-06T04:11:13.423Z,100990.47
2019-05-06T04:13:49.515Z,100998.06
2019-05-06T04:16:23.247Z,100998.45
2019-05-06T04:18:57.691Z,100997.16
2019-05-06T04:21:32.977Z,100999.73
2019-05-06T04:24:04.660Z,100993.69
2019-05-06T04:26:38.031Z,100989.70
2019-05-06T04:29:12.916Z,100993.40
2019-05-06T04:31:43.969Z,100990.69
2019-05-06T04:34:19.474Z,100992.45
2019-05-06T04:36:48.599Z,100999.90
2019-05-06T04:39:23.322Z,100991.36
2019-05-06T04:41:54.680Z,100989.27
2019-05-06T04:44:26.780Z,100993.59
2019-05-06T04:46:59.078Z,100994.43
2019-05-06T04:49:33.109Z,100991.66
2019-05-06T04:52:06.453Z,100989.01
2019-05-06T04:54:38.547Z,100987.55
2019-05-06T04:57:12.887Z,100986.84
2019-05-06T04:59:46.077Z,100986.27
2019-05-06T05:02:18.819Z,100989.35
2019-05-06T05:04:52.869Z,100990.72
2019-05-06T05:07:24.737Z,100995.02
2019-05-06T05:09:58.354Z,100988.48
2019-05-06T05:12:33.551Z,100985.71
2019-05-06T05:15:06.574Z,100986.91
2019-05-06T05:17:42.001Z,100987.84
2019-05-06T05:20:13.106Z,100985.38
2019-05-06T05:22:48.106Z,100989.08
2019-05-06T05:25:19.198Z,100984.20
2019-05-06T05:27:52.732Z,100989.87
2019-05-06T05:30:25.978Z,100984.31
2019-05-06T05:32:58.209Z,100981.23
2019-05-06T05:35:32.121Z,100980.92
2019-05-06T05:38:03.871Z,100981.63
2019-05-06T05:40:36.586Z,100978.06
2019-05-06T05:43:11.742Z,100978.61
2019-05-06T05:45:44.561Z,100975.20
2019-05-06T05:48:19.303Z,100982.03
2019-05-06T05:50:52.511Z,100970.02
2019-05-06T05:53:26.087Z,100974.23
2019-05-06T05:55:58.787Z,100975.33
2019-05-06T05:58:33.127Z,100971.91
2019-05-06T06:01:04.925Z,100962.60
2019-05-06T06:03:37.538Z,100963.53
2019-05-06T06:06:12.466Z,100960.15
2019-05-06T06:08:44.040Z,100964.91
2019-05-06T06:11:18.523Z,100962.28
2019-05-06T06:13:52.173Z,100961.28
2019-05-06T06:16:23.822Z,100968.03
2019-05-06T06:19:03.228Z,100972.81
2019-05-06T06:21:32.376Z,100966.50
2019-05-06T06:24:05.040Z,100962.96
2019-05-06T06:26:37.566Z,100960.47
2019-05-06T06:29:09.295Z,100958.55
2019-05-06T06:31:42.846Z,100961.05
2019-05-06T06:34:16.264Z,100961.27
2019-05-06T06:36:49.517Z,100960.39
2019-05-06T06:39:24.439Z,100962.94
2019-05-06T06:41:56.318Z,100956.55
2019-05-06T06:44:29.263Z,100961.20
2019-05-06T06:47:02.189Z,100964.28
2019-05-06T06:49:35.114Z,100959.83
2019-05-06T06:52:11.296Z,100955.95
2019-05-06T06:54:44.540Z,100954.91
2019-05-06T06:57:19.362Z,100958.73
2019-05-06T06:59:53.205Z,100957.98
2019-05-06T07:02:26.661Z,100955.02
2019-05-06T07:05:02.348Z,100955.91
2019-05-06T07:07:43.411Z,100952.55
2019-05-06T07:10:12.119Z,100953.95
2019-05-06T07:12:43.723Z,100951.06
2019-05-06T07:15:15.221Z,100960.83
2019-05-06T07:17:46.446Z,100958.63
2019-05-06T07:20:22.856Z,100959.91
2019-05-06T07:22:54.901Z,100962.67
2019-05-06T07:25:26.655Z,100954.49
2019-05-06T07:27:59.314Z,100956.33
2019-05-06T07:30:32.325Z,100950.48
2019-05-06T07:33:06.467Z,100956.22
2019-05-06T07:35:41.103Z,100951.84
2019-05-06T07:38:12.316Z,100962.73
2019-05-06T07:40:47.150Z,100954.07
2019-05-06T07:43:22.040Z,100948.52
2019-05-06T07:45:55.504Z,100947.12
2019-05-06T07:48:28.271Z,100949.14
2019-05-06T07:51:03.032Z,100953.59
2019-05-06T07:53:34.883Z,100948.34
2019-05-06T07:56:07.887Z,100939.60
2019-05-06T07:58:43.095Z,100942.23
2019-05-06T08:01:16.067Z,100946.95
2019-05-06T08:03:49.231Z,100941.31
2019-05-06T08:06:22.734Z,100945.12
2019-05-06T08:08:56.061Z,100938.64
2019-05-06T08:11:27.988Z,100941.20
2019-05-06T08:13:59.533Z,100945.17
2019-05-06T08:16:32.377Z,100936.73
2019-05-06T08:19:05.236Z,100942.76
2019-05-06T08:21:38.661Z,100940.00
2019-05-06T08:24:11.955Z,100946.19
2019-05-06T08:26:43.368Z,100943.84
2019-05-06T08:29:16.030Z,100943.12
2019-05-06T08:31:49.189Z,100941.56
2019-05-06T08:34:22.605Z,100939.56
2019-05-06T08:36:56.725Z,100937.22
2019-05-06T08:39:29.639Z,100939.11
2019-05-06T08:42:02.857Z,100932.29
2019-05-06T08:44:35.796Z,100940.39
2019-05-06T08:47:08.060Z,100936.00
2019-05-06T08:49:42.274Z,100936.71
2019-05-06T08:52:15.708Z,100936.75
2019-05-06T08:54:48.481Z,100934.83
2019-05-06T08:57:19.894Z,100935.34
2019-05-06T08:59:51.034Z,100933.87
2019-05-06T09:02:24.743Z,100942.48
2019-05-06T09:04:55.759Z,100939.33
2019-05-06T09:07:27.147Z,100945.67
2019-05-06T09:09:59.548Z,100932.66
2019-05-06T09:12:32.939Z,100934.95
2019-05-06T09:15:06.265Z,100933.56
2019-05-06T09:17:37.911Z,100923.08
2019-05-06T09:20:09.948Z,100921.38
2019-05-06T09:22:43.110Z,100921.25
2019-05-06T09:25:16.045Z,100913.72
2019-05-06T09:27:47.268Z,100917.50
2019-05-06T09:30:23.058Z,100920.08
2019-05-06T09:32:55.033Z,100926.47
2019-05-06T09:35:27.559Z,100927.72
2019-05-06T09:38:02.186Z,100928.20
2019-05-06T09:40:34.715Z,100933.34
2019-05-06T09:43:07.566Z,100930.62
2019-05-06T09:45:38.909Z,100930.75
2019-05-06T09:48:12.853Z,100927.73
2019-05-06T09:50:46.792Z,100933.61
2019-05-06T09:53:23.094Z,100930.06
2019-05-06T09:56:03.136Z,100928.89
2019-05-06T09:58:36.132Z,100929.83
2019-05-06T10:01:09.370Z,100925.12
2019-05-06T10:03:42.599Z,100931.36
2019-05-06T10:06:14.701Z,100933.75
2019-05-06T10:08:46.627Z,100924.89
2019-05-06T10:11:18.836Z,100925.77
2019-05-06T10:13:52.419Z,100926.28
2019-05-06T10:16:24.725Z,100921.72
2019-05-06T10:18:56.912Z,100918.53
2019-05-06T10:21:32.197Z,100918.80
2019-05-06T10:24:03.940Z,100928.64
2019-05-06T10:26:37.123Z,100920.78
2019-05-06T10:29:08.754Z,100911.47
2019-05-06T10:31:43.181Z,100917.83
2019-05-06T10:34:14.902Z,100911.99
2019-05-06T10:36:50.119Z,100919.95
2019-05-06T10:39:26.010Z,100924.42
2019-05-06T10:42:03.281Z,100925.70
2019-05-06T10:44:38.273Z,100923.41
2019-05-06T10:47:12.153Z,100923.41
2019-05-06T10:49:43.818Z,100924.13
2019-05-06T10:52:16.940Z,100920.93
2019-05-06T10:54:48.107Z,100925.50
2019-05-06T10:57:22.206Z,100908.98
2019-05-06T10:59:54.040Z,100913.45
2019-05-06T11:02:28.778Z,100915.80
2019-05-06T11:05:02.783Z,100913.38
2019-05-06T11:07:35.593Z,100922.48
2019-05-06T11:10:20.564Z,100926.06
2019-05-06T11:12:43.104Z,100925.63
2019-05-06T11:15:16.518Z,100928.39
2019-05-06T11:17:49.167Z,100932.31
2019-05-06T11:20:24.178Z,100927.59
2019-05-06T11:22:55.708Z,100935.63
2019-05-06T11:25:28.569Z,100935.63
2019-05-06T11:28:02.928Z,100936.21
2019-05-06T11:30:37.017Z,100942.98
2019-05-06T11:33:13.132Z,100942.45
2019-05-06T11:35:46.346Z,100937.22
2019-05-06T11:38:19.239Z,100940.34
2019-05-06T11:40:52.920Z,100936.45
2019-05-06T11:43:25.022Z,100934.66
2019-05-06T11:45:57.799Z,100936.20
2019-05-06T11:48:32.620Z,100934.72
2019-05-06T11:51:05.591Z,100930.72
2019-05-06T11:53:39.872Z,100927.08
2019-05-06T11:56:12.726Z,100935.89
2019-05-06T11:58:46.643Z,100929.64
2019-05-06T12:01:21.320Z,100928.51
2019-05-06T12:03:53.012Z,100932.23
2019-05-06T12:06:26.000Z,100926.02
2019-05-06T12:08:58.725Z,100934.17
2019-05-06T12:11:31.542Z,100928.94
2019-05-06T12:14:04.992Z,100931.08
2019-05-06T12:16:38.027Z,100927.58
2019-05-06T12:19:09.595Z,100923.75
2019-05-06T12:21:43.144Z,100921.80
2019-05-06T12:24:15.198Z,100924.02
2019-05-06T12:26:46.861Z,100929.06
2019-05-06T12:29:20.005Z,100923.88
2019-05-06T12:31:53.369Z,100918.64
2019-05-06T12:34:26.227Z,100914.14
2019-05-06T12:36:59.145Z,100913.80
2019-05-06T12:39:33.016Z,100912.08
2019-05-06T12:42:06.339Z,100908.58
2019-05-06T12:44:39.510Z,100912.89
2019-05-06T12:47:13.988Z,100918.92
2019-05-06T12:49:45.301Z,100915.84
2019-05-06T12:52:17.208Z,100918.20
2019-05-06T12:54:48.736Z,100908.68
2019-05-06T12:57:23.374Z,100904.86
2019-05-06T12:59:54.922Z,100904.69
2019-05-06T13:02:32.801Z,100894.70
2019-05-06T13:05:04.909Z,100885.55
2019-05-06T13:07:37.779Z,100891.29
2019-05-06T13:10:09.076Z,100882.13
2019-05-06T13:12:42.365Z,100880.22
2019-05-06T13:15:13.889Z,100881.21
2019-05-06T13:17:45.343Z,100889.03
2019-05-06T13:20:17.166Z,100875.86
2019-05-06T13:22:53.131Z,100884.05
2019-05-06T13:25:23.526Z,100872.67
2019-05-06T13:27:55.315Z,100875.58
2019-05-06T13:30:28.405Z,100873.00
2019-05-06T13:33:04.078Z,100877.13
2019-05-06T13:35:36.210Z,100874.77
2019-05-06T13:38:08.745Z,100864.70
2019-05-06T13:40:53.854Z,100869.62
2019-05-06T13:43:16.436Z,100849.73
2019-05-06T13:45:52.578Z,100851.95
2019-05-06T13:48:25.757Z,100852.19
2019-05-06T13:50:58.969Z,100841.58
2019-05-06T13:53:39.276Z,100847.58
2019-05-06T13:56:05.226Z,100846.05
2019-05-06T13:58:38.268Z,100855.48
2019-05-06T14:01:11.084Z,100841.09
2019-05-06T14:03:45.608Z,100854.22
2019-05-06T14:06:18.274Z,100852.04
2019-05-06T14:08:49.767Z,100853.47
2019-05-06T14:11:23.100Z,100855.75
2019-05-06T14:13:54.934Z,100854.41
2019-05-06T14:16:26.788Z,100856.97
2019-05-06T14:18:58.228Z,100854.44
2019-05-06T14:21:32.405Z,100846.99
2019-05-06T14:24:05.312Z,100844.57
2019-05-06T14:26:44.467Z,100841.28
2019-05-06T14:29:15.789Z,100844.81
2019-05-06T14:31:48.639Z,100846.36
2019-05-06T14:34:23.119Z,100848.20
2019-05-06T14:36:54.583Z,100857.55
2019-05-06T14:39:47.439Z,100855.42
2019-05-06T14:42:03.903Z,100852.27
2019-05-06T14:44:33.761Z,100854.28
2019-05-06T14:47:08.320Z,100852.29
2019-05-06T14:49:39.785Z,100847.74
2019-05-06T14:52:13.172Z,100844.47
2019-05-06T14:54:47.936Z,100853.54
2019-05-06T14:57:22.777Z,100855.25
2019-05-06T14:59:55.902Z,100862.83
2019-05-06T15:02:28.350Z,100858.52
2019-05-06T15:05:02.747Z,100859.22
2019-05-06T15:07:35.031Z,100863.58
2019-05-06T15:10:19.198Z,100866.55
2019-05-06T15:12:42.454Z,100867.47
2019-05-06T15:15:15.044Z,100870.01
2019-05-06T15:17:47.840Z,100875.16
2019-05-06T15:20:19.463Z,100863.17
2019-05-06T15:22:53.038Z,100861.77
2019-05-06T15:25:26.334Z,100855.77
2019-05-06T15:27:59.344Z,100855.70
2019-05-06T15:30:34.176Z,100861.69
2019-05-06T15:33:08.269Z,100854.91
2019-05-06T15:35:42.720Z,100866.20
2019-05-06T15:38:16.496Z,100862.31
2019-05-06T15:40:48.302Z,100868.13
2019-05-06T15:43:19.408Z,100865.80
2019-05-06T15:45:52.651Z,100870.26
2019-05-06T15:48:24.180Z,100882.16
2019-05-06T15:50:57.113Z,100875.89
2019-05-06T15:53:33.328Z,100881.88
2019-05-06T15:56:04.834Z,100879.29
2019-05-06T15:58:38.037Z,100878.40
2019-05-06T16:01:09.723Z,100872.34
2019-05-06T16:03:43.223Z,100867.73
2019-05-06T16:06:16.063Z,100869.25
2019-05-06T16:08:47.091Z,100863.20
2019-05-06T16:11:19.628Z,100868.44
2019-05-06T16:13:53.419Z,100866.33
2019-05-06T16:16:25.357Z,100867.47
2019-05-06T16:18:58.120Z,100867.27
2019-05-06T16:21:29.889Z,100873.09
2019-05-06T16:24:04.528Z,100872.06
2019-05-06T16:26:36.753Z,100877.91
2019-05-06T16:29:08.166Z,100869.93
2019-05-06T16:31:42.265Z,100877.87
2019-05-06T16:34:14.780Z,100873.16
2019-05-06T16:36:47.780Z,100874.35
2019-05-06T16:39:19.594Z,100879.34
2019-05-06T16:41:52.537Z,100880.52
2019-05-06T16:44:25.521Z,100877.02
2019-05-06T16:46:57.508Z,100874.86
2019-05-06T16:49:29.559Z,100876.92
2019-05-06T16:52:02.519Z,100877.05
2019-05-06T16:54:35.115Z,100875.62
2019-05-06T16:57:08.482Z,100873.97
2019-05-06T16:59:42.316Z,100872.84
2019-05-06T17:02:14.627Z,100873.26
2019-05-06T17:04:47.648Z,100878.52
2019-05-06T17:07:22.205Z,100882.98
2019-05-06T17:09:54.359Z,100883.56
2019-05-06T17:12:27.903Z,100883.79
2019-05-06T17:15:01.018Z,100887.31
2019-05-06T17:17:43.179Z,100886.42
2019-05-06T17:20:07.693Z,100881.28
2019-05-06T17:22:39.675Z,100879.64
2019-05-06T17:25:11.726Z,100888.40
2019-05-06T17:27:57.410Z,100892.46
2019-05-06T17:30:35.811Z,100888.79
2019-05-06T17:33:09.737Z,100891.07
2019-05-06T17:35:42.858Z,100894.66
2019-05-06T17:38:16.311Z,100893.97
2019-05-06T17:40:48.135Z,100895.27
2019-05-06T17:43:19.847Z,100897.55
2019-05-06T17:46:03.748Z,100898.49
2019-05-06T17:48:35.433Z,100901.52
2019-05-06T17:51:08.808Z,100906.56
2019-05-06T17:53:43.473Z,100908.05
2019-05-06T17:56:15.966Z,100909.95
2019-05-06T17:58:53.144Z,100910.48
2019-05-06T18:01:26.374Z,100908.75
2019-05-06T18:03:58.167Z,100920.17
2019-05-06T18:06:32.442Z,100923.62
2019-05-06T18:09:04.391Z,100923.32
2019-05-06T18:11:38.489Z,100928.83
2019-05-06T18:14:13.227Z,100931.50
2019-05-06T18:16:44.873Z,100937.02
2019-05-06T18:19:16.236Z,100940.81
2019-05-06T18:21:48.405Z,100939.76
2019-05-06T18:24:20.314Z,100936.61
2019-05-06T18:26:52.877Z,100948.94
2019-05-06T18:29:25.347Z,100951.40
2019-05-06T18:31:57.148Z,100958.48
2019-05-06T18:34:28.507Z,100961.30
2019-05-06T18:36:59.217Z,100966.88
2019-05-06T18:39:30.073Z,100966.84
2019-05-06T18:42:13.407Z,100975.57
2019-05-06T18:44:35.444Z,100974.64
2019-05-06T18:47:06.610Z,100975.53
2019-05-06T18:49:38.532Z,100980.08
2019-05-06T18:52:13.568Z,100980.59
2019-05-06T18:54:45.612Z,100989.75
2019-05-06T18:57:17.488Z,100995.71
2019-05-06T18:59:50.505Z,100994.88
2019-05-06T19:02:22.906Z,101002.30
2019-05-06T19:04:56.530Z,101000.38
2019-05-06T19:07:27.587Z,101005.33
2019-05-06T19:10:03.188Z,101005.18
2019-05-06T19:12:41.344Z,101005.40
2019-05-06T19:15:12.711Z,101009.14
2019-05-06T19:17:44.514Z,101013.55
2019-05-06T19:20:16.688Z,101017.45
2019-05-06T19:22:48.171Z,101019.56
2019-05-06T19:25:26.570Z,101016.67
2019-05-06T19:28:04.176Z,101009.25
2019-05-06T19:30:35.470Z,101012.77
2019-05-06T19:33:07.324Z,101014.99
2019-05-06T19:35:40.080Z,101014.28
2019-05-06T19:38:12.567Z,101018.41
2019-05-06T19:40:44.326Z,101020.48
2019-05-06T19:43:18.177Z,101011.50
2019-05-06T19:45:50.143Z,101012.94
2019-05-06T19:48:24.698Z,101017.34
2019-05-06T19:50:55.171Z,101018.39
2019-05-06T19:53:38.023Z,101019.09
2019-05-06T19:56:16.181Z,101020.25
2019-05-06T19:58:48.925Z,101015.39
2019-05-06T20:01:22.738Z,101014.57
2019-05-06T20:03:54.662Z,101015.88
2019-05-06T20:06:28.585Z,101019.57
2019-05-06T20:09:03.315Z,101021.14
2019-05-06T20:11:36.592Z,101019.74
2019-05-06T20:14:08.381Z,101016.72
2019-05-06T20:16:41.955Z,101013.91
2019-05-06T20:19:27.122Z,101021.19
2019-05-06T20:21:46.958Z,101017.19
2019-05-06T20:24:18.502Z,101019.00
2019-05-06T20:26:52.702Z,101018.78
2019-05-06T20:29:24.549Z,101018.56
2019-05-06T20:31:56.149Z,101018.86
2019-05-06T20:34:38.148Z,101015.56
2019-05-06T20:37:17.795Z,101014.45
2019-05-06T20:39:49.839Z,101016.13
2019-05-06T20:42:23.510Z,101009.59
2019-05-06T20:44:57.105Z,101017.16
2019-05-06T20:47:28.993Z,101015.23
2019-05-06T20:50:08.064Z,101020.88
2019-05-06T20:52:39.705Z,101011.26
2019-05-06T20:55:15.191Z,101010.55
2019-05-06T20:57:45.081Z,101009.10
2019-05-06T21:00:17.121Z,101009.28
2019-05-06T21:02:49.202Z,101013.70
2019-05-06T21:05:22.781Z,101013.70
2019-05-06T21:07:54.158Z,101013.41
2019-05-06T21:10:28.115Z,101011.48
2019-05-06T21:12:59.477Z,101015.79
2019-05-06T21:15:32.359Z,101018.05
2019-05-06T21:18:04.517Z,101020.58
2019-05-06T21:20:37.937Z,101026.48
2019-05-06T21:23:11.088Z,101020.80
2019-05-06T21:25:43.169Z,101021.80
2019-05-06T21:28:15.489Z,101023.41
2019-05-06T21:30:47.618Z,101025.00
2019-05-06T21:33:22.126Z,101026.03
2019-05-06T21:35:54.690Z,101021.17
2019-05-06T21:38:26.421Z,101028.22
2019-05-06T21:40:57.552Z,101020.94
2019-05-06T21:43:42.237Z,101026.05
2019-05-06T21:46:02.506Z,101025.35
2019-05-06T21:48:35.616Z,101020.08
2019-05-06T21:51:07.342Z,101022.08
2019-05-06T21:53:40.596Z,101024.21
2019-05-06T21:56:13.086Z,101026.50
2019-05-06T21:58:45.895Z,101027.26
2019-05-06T22:01:19.668Z,101024.56
2019-05-06T22:03:52.355Z,101024.59
2019-05-06T22:06:24.581Z,101022.12
2019-05-06T22:08:58.066Z,101020.13
2019-05-06T22:11:29.604Z,101016.77
2019-05-06T22:14:01.836Z,101025.05
2019-05-06T22:16:33.808Z,101015.36
2019-05-06T22:19:05.886Z,101013.77
2019-05-06T22:21:38.608Z,101015.28
2019-05-06T22:24:12.104Z,101015.96
2019-05-06T22:26:43.946Z,101015.77
2019-05-06T22:29:16.405Z,101012.17
2019-05-06T22:31:48.179Z,101014.20
2019-05-06T22:34:22.103Z,101014.20
2019-05-06T22:36:54.303Z,101008.59
2019-05-06T22:39:27.170Z,101008.80
2019-05-06T22:41:58.455Z,101005.88
2019-05-06T22:44:32.336Z,101001.52
2019-05-06T22:47:04.081Z,101005.00
2019-05-06T22:49:35.247Z,101007.51
2019-05-06T22:52:07.714Z,101009.91
2019-05-06T22:54:39.922Z,101006.02
2019-05-06T22:57:13.159Z,101007.11
2019-05-06T22:59:45.060Z,101002.53
2019-05-06T23:02:17.975Z,101001.72
2019-05-06T23:04:52.989Z,101000.63
2019-05-06T23:07:24.439Z,101006.63
2019-05-06T23:09:56.359Z,101002.63
2019-05-06T23:12:27.821Z,101012.80
2019-05-06T23:14:59.240Z,101010.32
2019-05-06T23:17:34.267Z,101006.63
2019-05-06T23:20:07.401Z,101010.92
2019-05-06T23:22:40.207Z,101010.92
2019-05-06T23:25:13.577Z,101020.74
2019-05-06T23:27:46.303Z,101011.38
2019-05-06T23:30:19.241Z,101019.94
2019-05-06T23:32:52.928Z,101013.03
2019-05-06T23:35:24.917Z,101008.42
2019-05-06T23:37:59.333Z,101015.63
2019-05-06T23:40:35.859Z,101014.70
2019-05-06T23:43:12.644Z,101022.56
2019-05-06T23:45:47.506Z,101019.97
2019-05-06T23:48:22.856Z,101018.74
2019-05-06T23:50:57.719Z,101020.49
2019-05-06T23:53:33.121Z,101016.45
2019-05-06T23:56:08.568Z,101023.50
2019-05-06T23:58:40.329Z,101021.87
